MST,Max TemperatureF,Mean TemperatureF,Min TemperatureF,Max Dew PointF,MeanDew PointF,Min DewpointF,Max Humidity, Mean Humidity, Min Humidity, Max Sea Level PressureIn, Mean Sea Level PressureIn, Min Sea Level PressureIn, Max VisibilityMiles, Mean VisibilityMiles, Min VisibilityMiles, Max Wind SpeedMPH, Mean Wind SpeedMPH, Max Gust SpeedMPH,PrecipitationIn, CloudCover, Events, WindDirDegrees
2012-11-1,70,55,40,33,26,17,57,36,14,30.09,29.95,29.84,10,10,10,15,7,18,0.00,4,,177
2012-11-2,54,46,38,33,28,20,62,47,31,30.15,30.01,29.85,10,10,10,17,6,20,0.00,6,,140
2012-11-3,62,46,30,33,28,20,82,51,20,30.22,30.15,30.08,10,10,10,15,6,17,0.00,2,,179
2012-11-4,63,49,34,29,23,17,75,48,20,30.31,30.18,30.11,10,10,10,14,5,17,0.00,5,,197
2012-11-5,65,48,30,33,28,26,82,54,26,30.30,30.19,30.09,10,10,10,14,6,17,0.00,4,,223
2012-11-6,67,51,34,31,27,24,70,45,20,30.25,30.17,30.10,10,10,10,10,5,14,0.00,2,,142
2012-11-7,74,55,36,27,21,12,55,33,10,30.11,29.98,29.83,10,10,10,12,6,15,0.00,1,,157
2012-11-8,64,49,34,31,25,16,70,47,23,29.96,29.85,29.77,10,10,10,17,7,23,0.00,3,,173
2012-11-9,68,52,36,33,27,17,76,47,17,29.76,29.58,29.41,10,10,10,44,11,53,0.00,2,,223
2012-11-10,53,36,19,36,28,17,100,65,29,29.91,29.60,29.34,10,5,0,30,13,38,0.23,7,Fog-Rain-Snow-Thunderstorm,21
2012-11-11,31,23,14,18,11,-1,92,62,31,30.27,30.04,29.81,10,9,2,26,4,36,T,6,Snow,358
2012-11-12,49,31,12,18,8,0,64,42,20,30.39,30.32,30.21,10,10,10,15,5,18,0.00,1,,169
2012-11-13,51,40,28,27,18,7,72,49,25,30.34,30.24,30.17,10,10,10,13,5,16,0.00,2,,112
2012-11-14,58,42,25,30,21,13,85,51,17,30.30,30.19,30.06,10,10,10,10,5,14,0.00,4,,145
2012-11-15,44,34,24,30,27,22,92,73,53,30.50,30.38,30.20,10,10,10,13,4,16,0.00,3,,158
2012-11-16,88,59,29,33,23,14,78,47,16,30.32,30.16,30.04,10,10,10,14,6,17,0.00,4,,169
2012-11-17,62,50,37,27,23,19,52,37,22,30.14,30.03,29.96,10,10,10,15,8,20,0.00,3,,163
2012-11-18,61,47,32,25,22,20,64,42,20,30.07,30.00,29.92,10,10,10,17,5,21,0.00,2,,206
2012-11-19,55,43,30,25,21,19,61,44,26,30.26,30.20,30.09,10,10,10,13,5,15,0.00,3,,178
2012-11-20,66,48,29,20,17,13,59,36,13,30.26,30.15,30.02,10,10,10,13,6,16,0.00,1,,167
2012-11-21,70,54,37,18,14,5,44,27,10,30.02,29.91,29.78,10,10,10,15,7,17,0.00,2,,199
2012-11-22,50,38,25,29,18,9,58,37,15,30.51,30.15,29.83,10,10,10,17,7,21,0.00,4,,136
2012-11-23,53,37,20,21,16,12,68,47,25,30.56,30.45,30.22,10,10,10,13,6,15,0.00,2,,192
2012-11-24,58,45,32,17,11,7,38,26,14,30.20,30.04,29.94,10,10,10,14,5,17,0.00,6,,189
2012-11-25,63,47,30,23,10,4,59,35,10,29.96,29.85,29.68,10,10,10,21,11,24,0.00,6,,205
2012-11-26,33,26,19,28,23,18,100,80,59,30.42,30.26,29.96,10,7,0,15,6,18,0.00,6,Fog,349
2012-11-27,59,39,19,15,3,-5,84,46,7,30.30,30.22,30.12,10,10,10,17,5,21,0.00,5,,168
2012-11-28,58,42,26,13,5,-4,33,21,8,30.30,30.15,30.06,10,10,10,13,7,13,0.00,4,,152
2012-11-29,62,45,27,20,16,5,44,31,17,30.08,30.02,29.94,10,10,10,13,7,16,0.00,5,,192
2012-11-30,63,47,30,25,20,17,58,39,19,30.06,29.93,29.79,10,10,10,16,4,17,0.00,5,,221